Time;durP1;ratioP1;P1;durP2;ratioP2;P2;SDS_P1;SDS_P2;PMS_P1;PMS_P2;Temp;Humidity;BMP_temperature;BMP_pressure;BME280_temperature;BME280_humidity;BME280_pressure;Samples;Min_cycle;Max_cycle;Signal;HPM_P1;HPM_P2
2022/08/26 00:02:08;;;;;;;12.10;1.83;;;;;;;;;;4964078;28;20113;-71
2022/08/26 00:04:34;;;;;;;11.35;2.10;;;;;;;;;;4947941;28;20541;-71
2022/08/26 00:06:59;;;;;;;14.30;2.10;;;;;;;;;;4977420;28;20042;-72
2022/08/26 00:09:25;;;;;;;18.20;2.33;;;;;;;;;;4978826;28;20167;-69
2022/08/26 00:11:53;;;;;;;17.25;2.75;;;;;;;;;;4975337;28;20334;-70
2022/08/26 00:14:18;;;;;;;14.13;2.63;;;;;;;;;;4974562;28;20958;-71
2022/08/26 00:16:44;;;;;;;22.30;2.60;;;;;;;;;;4957100;28;20136;-71
2022/08/26 00:19:11;;;;;;;17.38;2.90;;;;;;;;;;4958702;28;20410;-72
2022/08/26 00:21:39;;;;;;;20.10;2.90;;;;;;;;;;4974578;28;20192;-68
2022/08/26 00:24:04;;;;;;;18.90;2.70;;;;;;;;;;4958882;28;20049;-69
2022/08/26 00:26:32;;;;;;;16.38;2.75;;;;;;;;;;4962070;28;20038;-71
2022/08/26 00:28:57;;;;;;;14.10;2.30;;;;;;;;;;4973127;28;20115;-67
2022/08/26 00:31:22;;;;;;;15.32;2.05;;;;;;;;;;4958567;28;20037;-70
2022/08/26 00:33:48;;;;;;;10.68;2.38;;;;;;;;;;4974366;28;20237;-72
2022/08/26 00:36:13;;;;;;;11.93;2.17;;;;;;;;;;4973065;28;20577;-72
2022/08/26 00:38:38;;;;;;;15.65;2.30;;;;;;;;;;4974623;28;20042;-70
2022/08/26 00:41:06;;;;;;;14.85;2.25;;;;;;;;;;4973539;28;20337;-70
2022/08/26 00:43:35;;;;;;;13.18;2.08;;;;;;;;;;4974025;28;20096;-69
2022/08/26 00:46:05;;;;;;;19.45;2.55;;;;;;;;;;4972682;28;20037;-72
2022/08/26 00:48:32;;;;;;;18.17;2.70;;;;;;;;;;4971301;28;20593;-71
2022/08/26 00:51:03;;;;;;;18.42;2.72;;;;;;;;;;4974510;28;20553;-71
2022/08/26 00:53:29;;;;;;;14.07;2.55;;;;;;;;;;4975508;28;20057;-72
2022/08/26 00:56:04;;;;;;;16.25;2.42;;;;;;;;;;4974160;28;20045;-71
2022/08/26 00:58:31;;;;;;;14.38;2.40;;;;;;;;;;4974165;28;20502;-72
2022/08/26 01:00:56;;;;;;;16.38;2.92;;;;;;;;;;4975173;28;20034;-71
2022/08/26 01:03:23;;;;;;;18.10;2.60;;;;;;;;;;4973697;28;20841;-70
2022/08/26 01:05:49;;;;;;;17.33;2.42;;;;;;;;;;4973685;28;20125;-69
2022/08/26 01:08:15;;;;;;;15.10;2.72;;;;;;;;;;4974561;28;20406;-71
2022/08/26 01:10:41;;;;;;;19.50;2.53;;;;;;;;;;4974174;28;20116;-70
2022/08/26 01:13:11;;;;;;;17.20;2.60;;;;;;;;;;4974000;28;20438;-70
2022/08/26 01:15:49;;;;;;;10.98;2.10;;;;;;;;;;4973525;28;20030;-70
2022/08/26 01:18:15;;;;;;;8.90;2.28;;;;;;;;;;4960516;28;20072;-70
2022/08/26 01:20:59;;;;;;;13.35;2.15;;;;;;;;;;4977159;28;20030;-70
2022/08/26 01:23:30;;;;;;;12.18;2.10;;;;;;;;;;4960321;28;20069;-69
2022/08/26 01:25:58;;;;;;;14.35;2.20;;;;;;;;;;4977053;28;20026;-70
2022/08/26 01:28:27;;;;;;;13.80;2.10;;;;;;;;;;4978472;28;20037;-71
2022/08/26 01:30:53;;;;;;;14.13;2.33;;;;;;;;;;4978223;28;20481;-68
2022/08/26 01:33:22;;;;;;;16.95;2.60;;;;;;;;;;4978239;28;20033;-71
2022/08/26 01:35:48;;;;;;;17.42;2.72;;;;;;;;;;4978825;28;20145;-71
2022/08/26 01:38:13;;;;;;;13.75;2.03;;;;;;;;;;4978103;28;20043;-70
2022/08/26 01:40:42;;;;;;;13.93;2.40;;;;;;;;;;4977255;28;21761;-71
2022/08/26 01:43:09;;;;;;;10.23;1.95;;;;;;;;;;4978121;28;20037;-71
2022/08/26 01:45:35;;;;;;;10.07;2.13;;;;;;;;;;4955103;28;20227;-70
2022/08/26 01:48:03;;;;;;;13.93;1.80;;;;;;;;;;4975412;28;20038;-70
2022/08/26 01:50:33;;;;;;;13.48;2.03;;;;;;;;;;4978453;28;20049;-69
2022/08/26 01:53:01;;;;;;;10.52;1.80;;;;;;;;;;4978201;28;20044;-70
2022/08/26 01:55:27;;;;;;;9.80;1.73;;;;;;;;;;4977879;28;20042;-71
2022/08/26 01:57:54;;;;;;;10.75;2.10;;;;;;;;;;4976251;28;21020;-71
2022/08/26 02:00:22;;;;;;;14.77;1.83;;;;;;;;;;4976020;28;20122;-70
2022/08/26 02:02:49;;;;;;;10.77;2.10;;;;;;;;;;4960101;28;20076;-71
2022/08/26 02:05:16;;;;;;;9.52;1.90;;;;;;;;;;4976638;28;20661;-70
2022/08/26 02:07:41;;;;;;;8.23;1.85;;;;;;;;;;4977799;28;20045;-72
2022/08/26 02:10:07;;;;;;;8.90;1.90;;;;;;;;;;4977679;28;20334;-71
2022/08/26 02:12:33;;;;;;;9.02;1.58;;;;;;;;;;4948092;28;20154;-73
2022/08/26 02:15:00;;;;;;;8.45;1.40;;;;;;;;;;4978319;28;20557;-71
2022/08/26 02:17:31;;;;;;;8.52;1.67;;;;;;;;;;4976214;28;21210;-72
2022/08/26 02:19:57;;;;;;;9.13;1.70;;;;;;;;;;4977843;28;20663;-71
2022/08/26 02:22:25;;;;;;;17.05;2.47;;;;;;;;;;4976873;28;20113;-71
2022/08/26 02:24:58;;;;;;;8.10;1.80;;;;;;;;;;4952515;28;20327;-70
2022/08/26 02:27:25;;;;;;;9.45;1.58;;;;;;;;;;4975426;28;20048;-70
2022/08/26 02:29:59;;;;;;;8.68;1.40;;;;;;;;;;4976279;28;20037;-70
2022/08/26 02:32:25;;;;;;;8.88;1.90;;;;;;;;;;4976774;28;20100;-70
2022/08/26 02:34:51;;;;;;;11.18;1.70;;;;;;;;;;4963418;28;20037;-71
2022/08/26 02:37:16;;;;;;;8.85;2.00;;;;;;;;;;4976137;28;21870;-70
2022/08/26 02:39:43;;;;;;;9.68;1.80;;;;;;;;;;4976237;28;20089;-69
2022/08/26 02:42:08;;;;;;;11.27;1.85;;;;;;;;;;4976317;28;21329;-70
2022/08/26 02:44:33;;;;;;;15.68;2.28;;;;;;;;;;4977344;28;20085;-69
2022/08/26 02:46:59;;;;;;;12.95;2.00;;;;;;;;;;4976935;28;20048;-71
2022/08/26 02:49:25;;;;;;;20.33;1.90;;;;;;;;;;4976128;28;20033;-69
2022/08/26 02:51:51;;;;;;;10.25;2.00;;;;;;;;;;4975885;28;20684;-70
2022/08/26 02:54:17;;;;;;;14.70;2.22;;;;;;;;;;4976201;28;20037;-69
2022/08/26 02:56:43;;;;;;;13.15;1.98;;;;;;;;;;4976515;28;20095;-70
2022/08/26 02:59:11;;;;;;;11.77;2.10;;;;;;;;;;4977664;28;20058;-70
2022/08/26 03:01:36;;;;;;;12.27;1.70;;;;;;;;;;4976953;28;20120;-70
2022/08/26 03:04:04;;;;;;;13.63;1.73;;;;;;;;;;4960064;28;20084;-70
2022/08/26 03:06:29;;;;;;;10.75;1.75;;;;;;;;;;4977590;28;20520;-70
2022/08/26 03:08:57;;;;;;;9.43;1.80;;;;;;;;;;4957200;28;20406;-70
2022/08/26 03:11:23;;;;;;;8.90;1.70;;;;;;;;;;4945674;28;21113;-70
2022/08/26 03:13:48;;;;;;;12.20;1.60;;;;;;;;;;4975154;28;20099;-70
2022/08/26 03:16:14;;;;;;;14.05;1.90;;;;;;;;;;4976177;28;20038;-70
2022/08/26 03:18:42;;;;;;;8.82;1.75;;;;;;;;;;4960667;28;20413;-71
2022/08/26 03:21:11;;;;;;;8.68;1.42;;;;;;;;;;4976633;28;20038;-68
2022/08/26 03:23:37;;;;;;;10.40;1.40;;;;;;;;;;4974967;28;20045;-69
2022/08/26 03:26:03;;;;;;;7.95;1.30;;;;;;;;;;4974672;28;20087;-70
2022/08/26 03:28:28;;;;;;;8.18;1.42;;;;;;;;;;4975972;28;20030;-69
2022/08/26 03:30:53;;;;;;;10.90;1.63;;;;;;;;;;4976915;28;20037;-68
2022/08/26 03:33:19;;;;;;;7.32;1.58;;;;;;;;;;4974321;28;20073;-67
2022/08/26 03:35:46;;;;;;;10.73;1.40;;;;;;;;;;4958666;28;20033;-68
2022/08/26 03:38:11;;;;;;;9.52;1.48;;;;;;;;;;4974994;28;20045;-68
2022/08/26 03:40:37;;;;;;;13.20;1.70;;;;;;;;;;4974377;28;20060;-68
2022/08/26 03:43:06;;;;;;;13.73;1.80;;;;;;;;;;4956349;28;20152;-69
2022/08/26 03:45:34;;;;;;;14.02;2.03;;;;;;;;;;4975731;28;20471;-70
2022/08/26 03:47:59;;;;;;;14.23;2.20;;;;;;;;;;4976035;28;20030;-70
2022/08/26 03:50:27;;;;;;;13.70;2.22;;;;;;;;;;4958300;28;20542;-69
2022/08/26 03:52:55;;;;;;;11.50;1.77;;;;;;;;;;4954606;28;20471;-69
2022/08/26 03:55:24;;;;;;;7.63;1.63;;;;;;;;;;4954550;28;20115;-70
2022/08/26 03:57:50;;;;;;;12.27;2.00;;;;;;;;;;4957532;28;20049;-69
2022/08/26 04:00:15;;;;;;;14.38;2.33;;;;;;;;;;4955698;28;20604;-70
2022/08/26 04:02:44;;;;;;;13.80;1.90;;;;;;;;;;4956165;28;20170;-69
2022/08/26 04:05:12;;;;;;;14.25;1.80;;;;;;;;;;4969343;28;20030;-68
2022/08/26 04:07:38;;;;;;;15.25;1.92;;;;;;;;;;4959013;28;20363;-69
2022/08/26 04:10:03;;;;;;;11.70;1.85;;;;;;;;;;4956024;28;20430;-71
2022/08/26 04:12:29;;;;;;;14.73;1.90;;;;;;;;;;4956697;28;20038;-70
2022/08/26 04:14:54;;;;;;;15.25;1.83;;;;;;;;;;4956143;28;20971;-68
2022/08/26 04:17:20;;;;;;;13.60;2.17;;;;;;;;;;4954882;28;20074;-67
2022/08/26 04:19:45;;;;;;;9.43;1.60;;;;;;;;;;4955837;28;20030;-67
2022/08/26 04:22:10;;;;;;;13.25;1.98;;;;;;;;;;4954733;28;20046;-67
2022/08/26 04:24:38;;;;;;;11.93;1.90;;;;;;;;;;4955994;28;21966;-66
2022/08/26 04:27:04;;;;;;;14.73;2.47;;;;;;;;;;4955920;28;20045;-67
2022/08/26 04:29:30;;;;;;;6.68;1.67;;;;;;;;;;4954691;28;20350;-67
2022/08/26 04:31:58;;;;;;;12.25;1.42;;;;;;;;;;4955324;28;20041;-67
2022/08/26 04:34:24;;;;;;;13.45;1.90;;;;;;;;;;4956019;28;20489;-67
2022/08/26 04:36:50;;;;;;;15.80;1.83;;;;;;;;;;4952420;28;20034;-68
2022/08/26 04:39:15;;;;;;;13.88;2.08;;;;;;;;;;4956575;28;20041;-67
2022/08/26 04:41:41;;;;;;;16.75;1.95;;;;;;;;;;4955411;28;20029;-67
2022/08/26 04:44:07;;;;;;;16.50;2.45;;;;;;;;;;4955766;28;20038;-67
2022/08/26 04:46:32;;;;;;;9.93;2.17;;;;;;;;;;4954895;28;20761;-67
2022/08/26 04:48:58;;;;;;;12.02;2.10;;;;;;;;;;4953274;28;20046;-67
2022/08/26 04:51:26;;;;;;;14.43;1.75;;;;;;;;;;4959572;28;20057;-66
2022/08/26 04:53:57;;;;;;;13.15;1.48;;;;;;;;;;4977252;28;20042;-69
2022/08/26 04:56:26;;;;;;;8.13;1.58;;;;;;;;;;4976542;28;20033;-68
2022/08/26 04:58:52;;;;;;;12.65;1.80;;;;;;;;;;4978553;28;20129;-69
2022/08/26 05:01:17;;;;;;;10.52;2.00;;;;;;;;;;4979494;28;20582;-69
2022/08/26 05:03:43;;;;;;;13.52;1.90;;;;;;;;;;4976901;28;20052;-68
2022/08/26 05:06:11;;;;;;;14.85;1.73;;;;;;;;;;4979400;28;20189;-70
2022/08/26 05:08:36;;;;;;;15.88;1.73;;;;;;;;;;4978828;28;20896;-69
2022/08/26 05:11:02;;;;;;;12.80;1.90;;;;;;;;;;4977783;28;20303;-69
2022/08/26 05:13:28;;;;;;;12.65;1.50;;;;;;;;;;4976108;28;20045;-67
2022/08/26 05:15:53;;;;;;;14.77;1.65;;;;;;;;;;4976567;28;20033;-67
2022/08/26 05:18:20;;;;;;;11.48;1.60;;;;;;;;;;4977496;28;20096;-66
2022/08/26 05:20:48;;;;;;;9.38;1.25;;;;;;;;;;4978578;28;20128;-66
2022/08/26 05:23:16;;;;;;;9.48;1.30;;;;;;;;;;4977060;28;20154;-67
2022/08/26 05:25:43;;;;;;;10.88;1.90;;;;;;;;;;4975748;28;20295;-67
2022/08/26 05:28:10;;;;;;;10.18;1.40;;;;;;;;;;4963303;28;20257;-66
2022/08/26 05:30:35;;;;;;;10.73;1.77;;;;;;;;;;4972323;28;22382;-67
2022/08/26 05:33:01;;;;;;;9.95;1.65;;;;;;;;;;4976315;28;20348;-67
2022/08/26 05:35:30;;;;;;;13.73;1.30;;;;;;;;;;4978342;28;20246;-68
2022/08/26 05:38:01;;;;;;;8.55;1.30;;;;;;;;;;4983725;28;20038;-71
2022/08/26 05:40:27;;;;;;;8.07;1.20;;;;;;;;;;4979281;28;20037;-67
2022/08/26 05:42:53;;;;;;;8.00;1.20;;;;;;;;;;4960874;28;20178;-67
2022/08/26 05:45:19;;;;;;;11.93;1.92;;;;;;;;;;4977892;28;20566;-68
2022/08/26 05:47:44;;;;;;;14.68;2.00;;;;;;;;;;4960241;28;20538;-66
2022/08/26 05:50:10;;;;;;;11.52;1.75;;;;;;;;;;4979301;28;20034;-75
2022/08/26 05:52:36;;;;;;;11.25;1.80;;;;;;;;;;4991264;28;20041;-71
2022/08/26 05:55:02;;;;;;;12.73;1.60;;;;;;;;;;4974156;28;20470;-70
2022/08/26 05:57:28;;;;;;;10.05;1.58;;;;;;;;;;4988689;28;20956;-71
2022/08/26 05:59:56;;;;;;;13.02;1.33;;;;;;;;;;4987773;28;20072;-72
2022/08/26 06:02:21;;;;;;;8.95;1.38;;;;;;;;;;4981037;28;20443;-71
2022/08/26 06:04:47;;;;;;;9.98;1.30;;;;;;;;;;4970653;28;20478;-72
2022/08/26 06:07:15;;;;;;;9.10;1.77;;;;;;;;;;4972211;28;20449;-67
2022/08/26 06:09:41;;;;;;;9.48;1.67;;;;;;;;;;4978665;28;20184;-67
2022/08/26 06:12:06;;;;;;;7.55;1.45;;;;;;;;;;4959844;28;20092;-67
2022/08/26 06:14:32;;;;;;;8.25;1.48;;;;;;;;;;4983526;28;20160;-72
2022/08/26 06:16:58;;;;;;;7.35;1.40;;;;;;;;;;4975813;28;20030;-67
2022/08/26 06:19:24;;;;;;;11.25;1.50;;;;;;;;;;4980055;28;20044;-71
2022/08/26 06:21:53;;;;;;;6.57;1.27;;;;;;;;;;4981797;28;20068;-70
2022/08/26 06:27:04;;;;;;;9.13;1.58;;;;;;;;;;4983511;28;20045;-72
2022/08/26 06:29:33;;;;;;;15.10;1.65;;;;;;;;;;4986134;28;20893;-73
2022/08/26 06:31:58;;;;;;;8.95;1.52;;;;;;;;;;4981646;28;20535;-73
2022/08/26 06:34:24;;;;;;;10.88;1.30;;;;;;;;;;4968778;28;20042;-70
2022/08/26 06:36:52;;;;;;;13.07;2.10;;;;;;;;;;4980202;28;20037;-74
2022/08/26 06:39:20;;;;;;;15.63;2.33;;;;;;;;;;4967735;28;20038;-72
2022/08/26 06:41:45;;;;;;;12.30;1.75;;;;;;;;;;4982311;28;20396;-71
2022/08/26 06:44:11;;;;;;;13.23;1.85;;;;;;;;;;4953299;28;20044;-68
2022/08/26 06:46:39;;;;;;;9.88;1.52;;;;;;;;;;4976919;28;20038;-72
2022/08/26 06:49:07;;;;;;;13.23;1.83;;;;;;;;;;4977260;28;20438;-68
2022/08/26 06:51:34;;;;;;;12.65;1.52;;;;;;;;;;4976972;28;20429;-68
2022/08/26 06:53:59;;;;;;;17.83;1.88;;;;;;;;;;4976074;28;20706;-67
2022/08/26 06:56:31;;;;;;;9.95;1.38;;;;;;;;;;4977374;28;20038;-70
2022/08/26 06:58:56;;;;;;;11.30;1.38;;;;;;;;;;4957460;28;20256;-70
2022/08/26 07:01:23;;;;;;;10.10;1.50;;;;;;;;;;4976119;28;20203;-71
2022/08/26 07:03:50;;;;;;;13.50;1.35;;;;;;;;;;4979933;28;20442;-68
2022/08/26 07:06:18;;;;;;;20.17;2.67;;;;;;;;;;4976670;28;20148;-68
2022/08/26 07:08:43;;;;;;;24.98;2.13;;;;;;;;;;4976397;28;20048;-70
2022/08/26 07:11:09;;;;;;;18.70;2.00;;;;;;;;;;4957855;28;20244;-68
2022/08/26 07:13:36;;;;;;;11.27;1.55;;;;;;;;;;4979212;28;20037;-74
2022/08/26 07:16:05;;;;;;;8.40;1.52;;;;;;;;;;4977981;28;20133;-72
2022/08/26 07:18:32;;;;;;;11.65;1.42;;;;;;;;;;4977025;28;20040;-68
2022/08/26 07:20:59;;;;;;;12.13;1.55;;;;;;;;;;4977942;28;20542;-68
2022/08/26 07:23:24;;;;;;;7.57;1.08;;;;;;;;;;4982326;28;20045;-72
2022/08/26 07:25:50;;;;;;;6.88;1.02;;;;;;;;;;4962874;28;20120;-72
2022/08/26 07:28:20;;;;;;;9.73;1.48;;;;;;;;;;4962085;28;20868;-71
2022/08/26 07:30:45;;;;;;;7.40;1.08;;;;;;;;;;4978154;28;20317;-69
2022/08/26 07:33:11;;;;;;;6.15;1.00;;;;;;;;;;4978231;28;20167;-70
2022/08/26 07:35:36;;;;;;;12.13;1.63;;;;;;;;;;4963125;28;20457;-71
2022/08/26 07:38:02;;;;;;;8.48;1.30;;;;;;;;;;4974491;28;20271;-70
2022/08/26 07:40:27;;;;;;;7.38;1.13;;;;;;;;;;4975770;28;20589;-73
2022/08/26 07:42:52;;;;;;;12.02;1.40;;;;;;;;;;4975520;28;20033;-68
2022/08/26 07:45:18;;;;;;;4.63;1.10;;;;;;;;;;4974517;28;20376;-66
2022/08/26 07:47:46;;;;;;;6.78;1.20;;;;;;;;;;4962856;28;20456;-73
2022/08/26 07:50:11;;;;;;;7.55;1.10;;;;;;;;;;4983250;28;20398;-77
2022/08/26 07:52:37;;;;;;;6.93;1.17;;;;;;;;;;4962845;28;20052;-74
2022/08/26 07:55:07;;;;;;;8.75;1.65;;;;;;;;;;4966461;28;20724;-74
2022/08/26 07:57:33;;;;;;;6.53;1.27;;;;;;;;;;4963008;28;20160;-76
2022/08/26 07:59:58;;;;;;;9.15;1.23;;;;;;;;;;4980549;28;20498;-74
2022/08/26 08:02:25;;;;;;;10.43;1.10;;;;;;;;;;4981337;28;20048;-75
2022/08/26 08:04:51;;;;;;;10.60;1.02;;;;;;;;;;4974242;28;20048;-69
2022/08/26 08:07:17;;;;;;;8.95;1.60;;;;;;;;;;4976635;28;20044;-74
2022/08/26 08:09:42;;;;;;;14.07;1.77;;;;;;;;;;4976531;28;22427;-75
2022/08/26 08:12:10;;;;;;;10.75;1.50;;;;;;;;;;4980009;28;20506;-74
2022/08/26 08:14:38;;;;;;;11.63;1.60;;;;;;;;;;4981453;28;20038;-74
2022/08/26 08:17:04;;;;;;;6.53;1.42;;;;;;;;;;4960770;28;20349;-75
2022/08/26 08:19:29;;;;;;;9.27;1.77;;;;;;;;;;4963772;28;20588;-70
2022/08/26 08:21:57;;;;;;;7.15;1.45;;;;;;;;;;4958374;28;20042;-69
2022/08/26 08:24:22;;;;;;;13.25;1.65;;;;;;;;;;4974341;28;20047;-71
2022/08/26 08:26:47;;;;;;;11.88;1.77;;;;;;;;;;4939361;28;20282;-76
2022/08/26 08:29:12;;;;;;;12.68;1.58;;;;;;;;;;4950015;28;20530;-68
2022/08/26 08:31:38;;;;;;;7.53;1.63;;;;;;;;;;4977605;28;20305;-74
2022/08/26 08:34:03;;;;;;;16.15;1.85;;;;;;;;;;4982800;28;20042;-75
2022/08/26 08:36:32;;;;;;;11.75;1.77;;;;;;;;;;4983882;28;21040;-74
2022/08/26 08:38:57;;;;;;;8.07;1.75;;;;;;;;;;4967379;28;20049;-68
2022/08/26 08:41:43;;;;;;;11.07;1.88;;;;;;;;;;4978328;28;20061;-69
2022/08/26 08:44:12;;;;;;;8.45;1.85;;;;;;;;;;4960906;28;20106;-73
2022/08/26 08:46:38;;;;;;;9.02;1.92;;;;;;;;;;4984683;28;20052;-73
2022/08/26 08:49:03;;;;;;;9.13;1.80;;;;;;;;;;4981716;28;20045;-74
2022/08/26 08:51:38;;;;;;;10.82;1.60;;;;;;;;;;4983183;28;20592;-77
2022/08/26 08:54:04;;;;;;;13.10;1.88;;;;;;;;;;4971497;28;20227;-76
2022/08/26 08:56:37;;;;;;;11.02;1.85;;;;;;;;;;4982625;28;20779;-73
2022/08/26 08:59:22;;;;;;;12.88;1.67;;;;;;;;;;4957560;28;20665;-69
2022/08/26 09:02:05;;;;;;;10.85;2.40;;;;;;;;;;4979094;28;20061;-69
2022/08/26 09:04:50;;;;;;;15.23;2.60;;;;;;;;;;4982536;28;20153;-75
2022/08/26 09:07:17;;;;;;;13.10;1.70;;;;;;;;;;4978747;28;20123;-74
2022/08/26 09:09:46;;;;;;;9.07;1.70;;;;;;;;;;4979985;28;20281;-73
2022/08/26 09:12:14;;;;;;;6.07;1.50;;;;;;;;;;4981934;28;20087;-70
2022/08/26 09:14:39;;;;;;;11.02;2.00;;;;;;;;;;4978759;28;20510;-70
2022/08/26 09:17:17;;;;;;;7.97;1.63;;;;;;;;;;4983957;28;20202;-74
2022/08/26 09:19:49;;;;;;;12.43;1.90;;;;;;;;;;4962898;28;20026;-70
2022/08/26 09:22:32;;;;;;;11.55;2.00;;;;;;;;;;4963606;28;20042;-68
2022/08/26 09:24:58;;;;;;;10.00;1.75;;;;;;;;;;4981073;28;20046;-69
2022/08/26 09:27:43;;;;;;;8.45;1.45;;;;;;;;;;4978685;28;20618;-69
2022/08/26 09:30:13;;;;;;;10.43;1.58;;;;;;;;;;4983548;28;20037;-74
2022/08/26 09:32:38;;;;;;;11.70;1.83;;;;;;;;;;4982967;28;20151;-75
2022/08/26 09:35:06;;;;;;;21.08;3.42;;;;;;;;;;4985429;28;20776;-78
2022/08/26 09:37:31;;;;;;;11.32;2.00;;;;;;;;;;4979877;28;20764;-68
2022/08/26 09:40:10;;;;;;;10.25;1.40;;;;;;;;;;4960993;28;20101;-73
2022/08/26 09:42:35;;;;;;;12.52;1.77;;;;;;;;;;4981771;28;20395;-74
2022/08/26 09:45:03;;;;;;;9.00;1.85;;;;;;;;;;4979061;28;20045;-75
2022/08/26 09:47:29;;;;;;;14.00;1.88;;;;;;;;;;4978843;28;21779;-75
2022/08/26 09:49:59;;;;;;;10.35;1.88;;;;;;;;;;4953669;28;20688;-68
2022/08/26 09:52:26;;;;;;;14.45;1.77;;;;;;;;;;4976818;28;20889;-71
2022/08/26 09:55:09;;;;;;;9.50;1.40;;;;;;;;;;4978083;28;20581;-70
2022/08/26 09:57:42;;;;;;;10.98;1.90;;;;;;;;;;4980565;28;20297;-74
2022/08/26 10:00:29;;;;;;;8.52;1.60;;;;;;;;;;4977728;28;20034;-69
2022/08/26 10:02:54;;;;;;;11.55;1.83;;;;;;;;;;4976437;28;20065;-70
2022/08/26 10:05:27;;;;;;;8.02;1.58;;;;;;;;;;4977757;28;20044;-69
2022/08/26 10:07:53;;;;;;;9.52;1.95;;;;;;;;;;4982175;28;20041;-75
2022/08/26 10:10:25;;;;;;;12.15;1.75;;;;;;;;;;4980914;28;20037;-74
2022/08/26 10:12:55;;;;;;;7.07;1.58;;;;;;;;;;4976972;28;20060;-70
2022/08/26 10:15:22;;;;;;;9.98;1.88;;;;;;;;;;4976096;28;20201;-71
2022/08/26 10:17:47;;;;;;;10.98;1.60;;;;;;;;;;4975776;28;20038;-74
2022/08/26 10:20:22;;;;;;;8.25;1.38;;;;;;;;;;4979991;28;20072;-69
2022/08/26 10:23:02;;;;;;;12.65;1.60;;;;;;;;;;4980559;28;20099;-73
2022/08/26 10:25:32;;;;;;;7.65;1.67;;;;;;;;;;4978411;28;20146;-74
2022/08/26 10:28:10;;;;;;;8.40;1.80;;;;;;;;;;4981845;28;20809;-73
2022/08/26 10:30:41;;;;;;;10.43;1.20;;;;;;;;;;4986418;28;20044;-74
2022/08/26 10:33:07;;;;;;;;;;;;;;;;;;4984041;28;20457;-75
2022/08/26 10:35:34;;;;;;;8.18;1.15;;;;;;;;;;4987571;28;19986;-74
2022/08/26 10:38:03;;;;;;;7.15;1.17;;;;;;;;;;4987103;28;20034;-74
2022/08/26 10:40:43;;;;;;;8.13;1.10;;;;;;;;;;4979394;28;20443;-73
2022/08/26 10:43:12;;;;;;;8.93;1.55;;;;;;;;;;4960683;28;20279;-68
2022/08/26 10:45:42;;;;;;;6.43;1.50;;;;;;;;;;4975159;28;20740;-69
2022/08/26 10:48:11;;;;;;;7.78;1.45;;;;;;;;;;4975221;28;20787;-74
2022/08/26 10:50:41;;;;;;;5.13;1.30;;;;;;;;;;4980170;28;21854;-74
2022/08/26 10:53:15;;;;;;;7.18;1.30;;;;;;;;;;4978866;28;22321;-74
2022/08/26 10:56:00;;;;;;;8.38;1.20;;;;;;;;;;4981214;28;20134;-74
2022/08/26 10:58:28;;;;;;;7.85;1.38;;;;;;;;;;4980360;28;20069;-75
2022/08/26 11:03:59;;;;;;;6.00;1.10;;;;;;;;;;4982787;28;21918;-68
2022/08/26 11:06:27;;;;;;;6.22;1.30;;;;;;;;;;4974376;28;20075;-69
2022/08/26 11:08:57;;;;;;;9.07;1.40;;;;;;;;;;4975294;28;20029;-68
2022/08/26 11:11:40;;;;;;;8.32;1.42;;;;;;;;;;4975451;28;20049;-71
2022/08/26 11:14:07;;;;;;;8.30;1.25;;;;;;;;;;4977513;28;20554;-70
2022/08/26 11:16:33;;;;;;;12.05;1.83;;;;;;;;;;4973164;28;20119;-68
2022/08/26 11:18:58;;;;;;;8.30;1.67;;;;;;;;;;4971560;28;20143;-69
2022/08/26 11:21:43;;;;;;;12.65;1.88;;;;;;;;;;4957986;28;20056;-69
2022/08/26 11:24:28;;;;;;;5.50;1.20;;;;;;;;;;4974323;28;20093;-70
2022/08/26 11:26:56;;;;;;;10.68;1.40;;;;;;;;;;4961318;28;20132;-73
2022/08/26 11:29:40;;;;;;;6.32;1.33;;;;;;;;;;4963993;28;20452;-72
2022/08/26 11:32:21;;;;;;;7.13;1.77;;;;;;;;;;4979774;28;20040;-73
2022/08/26 11:34:52;;;;;;;12.23;1.52;;;;;;;;;;4979328;28;20378;-70
2022/08/26 11:37:18;;;;;;;7.72;1.55;;;;;;;;;;4973471;28;20250;-69
2022/08/26 11:39:50;;;;;;;7.85;1.67;;;;;;;;;;4970959;28;20572;-69
2022/08/26 11:42:36;;;;;;;10.63;1.73;;;;;;;;;;4973703;28;20195;-70
2022/08/26 11:45:16;;;;;;;8.77;1.60;;;;;;;;;;4973937;28;20080;-73
2022/08/26 11:47:45;;;;;;;9.80;1.52;;;;;;;;;;4978490;28;20529;-69
2022/08/26 11:50:13;;;;;;;7.13;1.40;;;;;;;;;;4971401;28;20069;-69
2022/08/26 11:52:38;;;;;;;8.93;1.60;;;;;;;;;;4957157;28;20057;-73
2022/08/26 11:55:06;;;;;;;7.25;1.20;;;;;;;;;;4978384;28;20033;-71
2022/08/26 11:57:32;;;;;;;7.07;1.40;;;;;;;;;;4945101;28;20041;-69
2022/08/26 11:59:57;;;;;;;8.10;1.52;;;;;;;;;;4958876;28;20034;-72
2022/08/26 12:02:24;;;;;;;6.95;1.40;;;;;;;;;;4978926;28;20041;-70
2022/08/26 12:04:50;;;;;;;9.18;1.25;;;;;;;;;;4973936;28;20214;-70
2022/08/26 12:07:23;;;;;;;7.57;1.60;;;;;;;;;;4974621;28;20044;-70
2022/08/26 12:09:50;;;;;;;7.03;1.58;;;;;;;;;;4970535;28;20199;-71
2022/08/26 12:12:17;;;;;;;6.95;1.15;;;;;;;;;;4956956;28;20828;-70
2022/08/26 12:14:42;;;;;;;7.80;1.33;;;;;;;;;;4973793;28;20044;-68
2022/08/26 12:17:12;;;;;;;7.45;1.40;;;;;;;;;;4974056;28;20034;-68
2022/08/26 12:19:41;;;;;;;7.63;1.42;;;;;;;;;;4972238;28;20033;-68
2022/08/26 12:22:17;;;;;;;8.18;1.38;;;;;;;;;;4977434;28;22038;-72
2022/08/26 12:24:47;;;;;;;7.25;1.48;;;;;;;;;;4973912;28;20049;-68
2022/08/26 12:27:15;;;;;;;7.53;1.40;;;;;;;;;;4977618;28;20631;-71
2022/08/26 12:29:40;;;;;;;7.53;1.30;;;;;;;;;;4977534;28;20041;-70
2022/08/26 12:32:12;;;;;;;5.05;1.45;;;;;;;;;;4976993;28;20045;-73
2022/08/26 12:34:37;;;;;;;;;;;;;;;;;;4956135;28;20038;-73
2022/08/26 12:37:02;;;;;;;6.22;1.38;;;;;;;;;;4981592;28;20083;-73
2022/08/26 12:39:29;;;;;;;9.00;1.90;;;;;;;;;;4974716;28;20038;-69
2022/08/26 12:41:56;;;;;;;5.90;1.60;;;;;;;;;;4975137;28;20026;-72
2022/08/26 12:44:42;;;;;;;7.20;1.30;;;;;;;;;;4958804;28;20045;-72
2022/08/26 12:47:08;;;;;;;7.13;1.50;;;;;;;;;;4964116;28;20060;-68
2022/08/26 12:49:35;;;;;;;8.88;1.48;;;;;;;;;;4971797;28;20037;-69
2022/08/26 12:52:00;;;;;;;8.45;1.48;;;;;;;;;;4957114;28;20139;-72
2022/08/26 12:54:57;;;;;;;9.63;1.60;;;;;;;;;;4976716;28;20041;-72
2022/08/26 12:57:11;;;;;;;8.82;1.60;;;;;;;;;;4960294;28;20037;-68
2022/08/26 12:59:38;;;;;;;6.90;1.45;;;;;;;;;;4975387;28;20313;-67
2022/08/26 13:02:04;;;;;;;7.47;1.40;;;;;;;;;;4975233;28;20034;-72
2022/08/26 13:04:38;;;;;;;13.65;1.60;;;;;;;;;;4983680;28;20133;-72
2022/08/26 13:07:20;;;;;;;9.50;1.60;;;;;;;;;;4960349;28;22699;-67
2022/08/26 13:09:46;;;;;;;13.55;1.92;;;;;;;;;;4974796;28;20026;-73
2022/08/26 13:12:21;;;;;;;8.35;1.52;;;;;;;;;;4977787;28;20057;-72
2022/08/26 13:14:46;;;;;;;9.30;1.65;;;;;;;;;;4963795;28;20132;-72
2022/08/26 13:17:12;;;;;;;5.10;1.60;;;;;;;;;;4979758;28;20339;-74
2022/08/26 13:19:42;;;;;;;10.00;1.67;;;;;;;;;;4982255;28;20053;-73
2022/08/26 13:22:10;;;;;;;7.95;1.40;;;;;;;;;;4986102;28;20501;-73
2022/08/26 13:24:37;;;;;;;7.63;1.55;;;;;;;;;;4961157;28;20473;-73
2022/08/26 13:27:05;;;;;;;8.98;1.70;;;;;;;;;;4976414;28;20123;-67
2022/08/26 13:29:31;;;;;;;8.15;1.70;;;;;;;;;;4980761;28;20034;-72
2022/08/26 13:31:56;;;;;;;8.05;1.90;;;;;;;;;;4982392;28;20037;-74
2022/08/26 13:34:22;;;;;;;8.88;1.50;;;;;;;;;;4976698;28;20646;-75
2022/08/26 13:36:51;;;;;;;6.63;1.63;;;;;;;;;;4980928;28;20038;-72
2022/08/26 13:39:18;;;;;;;11.65;2.25;;;;;;;;;;4981509;28;20033;-73
2022/08/26 13:41:44;;;;;;;10.23;1.70;;;;;;;;;;4980122;28;20152;-71
2022/08/26 13:44:10;;;;;;;8.57;1.48;;;;;;;;;;4975982;28;20168;-68
2022/08/26 13:46:36;;;;;;;7.05;1.50;;;;;;;;;;4976794;28;20840;-67
2022/08/26 13:49:02;;;;;;;8.65;1.70;;;;;;;;;;4963976;28;20604;-69
2022/08/26 13:51:27;;;;;;;9.60;1.67;;;;;;;;;;4977492;28;20072;-69
2022/08/26 13:53:55;;;;;;;8.52;1.67;;;;;;;;;;4968396;28;20651;-68
2022/08/26 13:56:26;;;;;;;9.48;1.98;;;;;;;;;;4979541;28;20060;-73
2022/08/26 13:58:51;;;;;;;7.93;1.77;;;;;;;;;;4981007;28;20685;-72
2022/08/26 14:01:17;;;;;;;7.30;1.38;;;;;;;;;;4980552;28;20037;-72
2022/08/26 14:03:42;;;;;;;9.07;1.40;;;;;;;;;;4979514;28;20077;-73
2022/08/26 14:06:08;;;;;;;6.82;1.55;;;;;;;;;;4964911;28;20410;-74
2022/08/26 14:08:36;;;;;;;9.23;1.80;;;;;;;;;;4980013;28;20236;-71
2022/08/26 14:11:04;;;;;;;9.82;1.95;;;;;;;;;;4981170;28;20184;-73
2022/08/26 14:13:30;;;;;;;9.98;2.00;;;;;;;;;;4978795;28;20747;-74
2022/08/26 14:15:58;;;;;;;8.38;1.85;;;;;;;;;;4977692;28;20505;-73
2022/08/26 14:18:28;;;;;;;6.88;1.63;;;;;;;;;;4977428;28;20327;-74
2022/08/26 14:20:53;;;;;;;7.38;1.50;;;;;;;;;;4965062;28;20034;-73
2022/08/26 14:23:21;;;;;;;6.45;1.30;;;;;;;;;;4979801;28;20146;-74
2022/08/26 14:25:47;;;;;;;8.40;1.45;;;;;;;;;;4976723;28;20468;-72
2022/08/26 14:28:12;;;;;;;10.55;1.88;;;;;;;;;;4961139;28;21680;-72
2022/08/26 14:30:41;;;;;;;9.20;1.67;;;;;;;;;;4966388;28;20136;-72
2022/08/26 14:33:09;;;;;;;8.60;2.10;;;;;;;;;;4967130;28;20295;-72
2022/08/26 14:35:34;;;;;;;6.45;1.90;;;;;;;;;;4980695;28;20049;-73
2022/08/26 14:37:59;;;;;;;7.30;1.65;;;;;;;;;;4979663;28;20546;-72
2022/08/26 14:40:28;;;;;;;8.20;1.70;;;;;;;;;;4961599;28;20091;-73
2022/08/26 14:42:53;;;;;;;5.72;1.45;;;;;;;;;;4981518;28;20042;-71
2022/08/26 14:45:21;;;;;;;7.20;1.70;;;;;;;;;;4978806;28;20103;-72
2022/08/26 14:47:47;;;;;;;10.88;1.80;;;;;;;;;;4981498;28;20030;-74